createdAt,value
2023-03-10T00:00:40.120Z,1.40
2023-03-10T00:03:06.812Z,1.30
2023-03-10T00:05:33.887Z,1.30
2023-03-10T00:08:00.746Z,1.30
2023-03-10T00:10:27.488Z,1.40
2023-03-10T00:12:54.212Z,1.40
2023-03-10T00:15:20.816Z,1.40
2023-03-10T00:17:50.155Z,1.40
2023-03-10T00:20:16.838Z,1.40
2023-03-10T00:22:43.557Z,1.40
2023-03-10T00:25:11.032Z,1.40
2023-03-10T00:27:37.699Z,1.40
2023-03-10T00:30:05.078Z,1.40
2023-03-10T00:32:31.715Z,1.40
2023-03-10T00:34:58.389Z,1.40
2023-03-10T00:37:25.050Z,1.40
2023-03-10T00:39:53.085Z,1.50
2023-03-10T00:42:20.315Z,1.40
2023-03-10T00:44:47.434Z,1.40
2023-03-10T00:47:14.180Z,1.40
2023-03-10T00:49:40.883Z,1.40
2023-03-10T00:52:07.510Z,1.40
2023-03-10T00:54:34.144Z,1.40
2023-03-10T00:57:00.940Z,1.50
2023-03-10T00:59:29.610Z,1.50
2023-03-10T01:01:59.543Z,1.50
2023-03-10T01:04:26.425Z,1.50
2023-03-10T01:06:53.071Z,1.50
2023-03-10T01:09:19.789Z,1.50
2023-03-10T01:11:46.498Z,1.50
2023-03-10T01:14:15.699Z,1.50
2023-03-10T01:16:42.510Z,1.50
2023-03-10T01:19:09.393Z,1.50
2023-03-10T01:21:38.570Z,1.50
2023-03-10T01:24:06.828Z,1.40
2023-03-10T01:26:33.861Z,1.40
2023-03-10T01:29:00.499Z,1.40
2023-03-10T01:31:27.435Z,1.40
2023-03-10T01:33:54.956Z,1.40
2023-03-10T01:36:26.039Z,1.40
2023-03-10T01:38:54.547Z,1.40
2023-03-10T01:41:22.565Z,1.40
2023-03-10T01:43:51.701Z,1.30
2023-03-10T01:46:27.297Z,1.40
2023-03-10T01:48:56.917Z,1.40
2023-03-10T01:51:24.280Z,1.40
2023-03-10T01:53:51.365Z,1.40
2023-03-10T01:56:18.148Z,1.40
2023-03-10T01:58:46.672Z,1.40
2023-03-10T02:01:14.703Z,1.40
2023-03-10T02:03:48.156Z,1.50
2023-03-10T02:06:19.443Z,1.50
2023-03-10T02:08:51.220Z,1.50
2023-03-10T02:11:19.785Z,1.50
2023-03-10T02:13:46.721Z,1.50
2023-03-10T02:16:14.191Z,1.50
2023-03-10T02:18:44.191Z,1.50
2023-03-10T02:21:49.615Z,1.60
2023-03-10T02:24:54.338Z,1.60
2023-03-10T02:27:24.907Z,1.50
2023-03-10T02:30:09.472Z,1.50
2023-03-10T02:32:42.219Z,1.50
2023-03-10T02:35:09.834Z,1.40
2023-03-10T02:37:37.253Z,1.40
2023-03-10T02:40:25.424Z,1.40
2023-03-10T02:42:52.443Z,1.50
2023-03-10T02:45:19.061Z,1.50
2023-03-10T02:47:45.665Z,1.50
2023-03-10T02:50:14.717Z,1.50
2023-03-10T02:52:58.479Z,1.50
2023-03-10T02:55:25.178Z,1.50
2023-03-10T02:57:51.766Z,1.50
2023-03-10T03:00:18.524Z,1.50
2023-03-10T03:02:45.248Z,1.60
2023-03-10T03:05:11.857Z,1.60
2023-03-10T03:07:38.482Z,1.60
2023-03-10T03:10:05.709Z,1.60
2023-03-10T03:12:32.315Z,1.60
2023-03-10T03:14:59.178Z,1.50
2023-03-10T03:17:25.826Z,1.50
2023-03-10T03:19:52.420Z,1.60
2023-03-10T03:22:19.003Z,1.60
2023-03-10T03:24:45.693Z,1.60
2023-03-10T03:27:12.329Z,1.60
2023-03-10T03:29:38.988Z,1.60
2023-03-10T03:32:06.248Z,1.60
2023-03-10T03:34:32.953Z,1.60
2023-03-10T03:36:59.609Z,1.60
2023-03-10T03:39:26.338Z,1.60
2023-03-10T03:41:55.188Z,1.50
2023-03-10T03:44:21.802Z,1.50
2023-03-10T03:46:48.469Z,1.50
2023-03-10T03:49:15.093Z,1.60
2023-03-10T03:51:41.676Z,1.60
2023-03-10T03:54:08.392Z,1.60
2023-03-10T03:56:35.084Z,1.60
2023-03-10T03:59:01.704Z,1.60
2023-03-10T04:01:28.357Z,1.60
2023-03-10T04:03:55.184Z,1.60
2023-03-10T04:06:21.977Z,1.50
2023-03-10T04:08:51.410Z,1.60
2023-03-10T04:11:18.020Z,1.60
2023-03-10T04:13:44.661Z,1.60
2023-03-10T04:16:11.590Z,1.60
2023-03-10T04:18:38.331Z,1.60
2023-03-10T04:21:05.209Z,1.60
2023-03-10T04:23:31.863Z,1.60
2023-03-10T04:25:58.614Z,1.60
2023-03-10T04:28:25.851Z,1.60
2023-03-10T04:30:52.559Z,1.60
2023-03-10T04:33:19.281Z,1.60
2023-03-10T04:35:48.841Z,1.60
2023-03-10T04:38:15.626Z,1.70
2023-03-10T04:40:42.382Z,1.60
2023-03-10T04:43:09.011Z,1.60
2023-03-10T04:45:35.721Z,1.60
2023-03-10T04:48:02.360Z,1.60
2023-03-10T04:50:29.152Z,1.70
2023-03-10T04:52:56.210Z,1.70
2023-03-10T04:55:22.948Z,1.70
2023-03-10T04:57:49.643Z,1.70
2023-03-10T05:00:16.654Z,1.70
2023-03-10T05:02:43.363Z,1.60
2023-03-10T05:05:10.640Z,1.60
2023-03-10T05:07:37.307Z,1.70
2023-03-10T05:10:04.466Z,1.80
2023-03-10T05:12:31.119Z,1.80
2023-03-10T05:14:57.801Z,1.70
2023-03-10T05:17:24.610Z,1.70
2023-03-10T05:19:51.359Z,1.70
2023-03-10T05:22:17.964Z,1.70
2023-03-10T05:24:44.858Z,1.70
2023-03-10T05:27:11.574Z,1.70
2023-03-10T05:29:39.237Z,1.70
2023-03-10T05:32:06.446Z,1.70
2023-03-10T05:34:33.230Z,1.80
2023-03-10T05:36:59.913Z,1.80
2023-03-10T05:39:26.593Z,1.80
2023-03-10T05:41:53.258Z,1.80
2023-03-10T05:44:19.917Z,1.80
2023-03-10T05:46:46.714Z,1.70
2023-03-10T05:49:13.392Z,1.70
2023-03-10T05:51:40.048Z,1.70
2023-03-10T05:54:06.931Z,1.70
2023-03-10T05:56:33.728Z,1.70
2023-03-10T05:59:00.483Z,1.80
2023-03-10T06:01:27.256Z,1.80
2023-03-10T06:03:54.008Z,1.70
2023-03-10T06:06:20.771Z,1.80
2023-03-10T06:08:47.485Z,1.70
2023-03-10T06:11:14.287Z,1.70
2023-03-10T06:13:40.974Z,1.80
2023-03-10T06:16:07.873Z,1.80
2023-03-10T06:18:34.918Z,1.80
2023-03-10T06:21:08.603Z,1.90
2023-03-10T06:23:35.961Z,1.90
2023-03-10T06:26:06.884Z,1.90
2023-03-10T06:28:36.797Z,1.90
2023-03-10T06:31:11.706Z,1.90
2023-03-10T06:33:38.555Z,1.90
2023-03-10T06:36:05.649Z,2.00
2023-03-10T06:38:32.369Z,1.90
2023-03-10T06:41:00.182Z,2.00
2023-03-10T06:43:26.941Z,2.00
2023-03-10T06:45:53.613Z,2.00
2023-03-10T06:48:21.727Z,2.00
2023-03-10T06:50:48.717Z,2.10
2023-03-10T06:53:17.406Z,2.10
2023-03-10T06:55:44.280Z,2.10
2023-03-10T06:58:11.385Z,2.10
2023-03-10T07:00:39.703Z,2.00
2023-03-10T07:03:06.718Z,2.10
2023-03-10T07:05:33.485Z,2.10
2023-03-10T07:08:00.114Z,2.10
2023-03-10T07:10:26.759Z,2.10
2023-03-10T07:12:56.635Z,2.10
2023-03-10T07:15:23.458Z,2.10
2023-03-10T07:17:50.351Z,2.10
2023-03-10T07:20:17.998Z,2.10
2023-03-10T07:22:44.723Z,2.20
2023-03-10T07:25:11.953Z,2.10
2023-03-10T07:27:38.744Z,2.10
2023-03-10T07:30:06.743Z,2.20
2023-03-10T07:32:33.446Z,2.20
2023-03-10T07:35:00.270Z,2.30
2023-03-10T07:37:26.867Z,2.30
2023-03-10T07:39:56.470Z,2.40
2023-03-10T07:42:23.258Z,2.50
2023-03-10T07:44:50.180Z,2.50
2023-03-10T07:47:16.840Z,2.60
2023-03-10T07:49:46.726Z,2.60
2023-03-10T07:52:15.074Z,2.60
2023-03-10T07:54:41.964Z,2.70
2023-03-10T07:57:08.602Z,2.70
2023-03-10T07:59:35.679Z,2.70
2023-03-10T08:02:02.578Z,2.70
2023-03-10T08:04:29.381Z,2.80
2023-03-10T08:06:56.598Z,2.90
2023-03-10T08:09:23.183Z,2.90
2023-03-10T08:11:49.781Z,2.90
2023-03-10T08:14:20.914Z,3.00
2023-03-10T08:16:47.670Z,3.10
2023-03-10T08:19:14.345Z,3.10
2023-03-10T08:21:41.151Z,3.30
2023-03-10T08:24:07.869Z,3.30
2023-03-10T08:26:34.577Z,3.30
2023-03-10T08:29:01.359Z,3.30
2023-03-10T08:31:28.134Z,3.40
2023-03-10T08:33:56.900Z,3.50
2023-03-10T08:36:25.707Z,3.70
2023-03-10T08:38:54.017Z,3.80
2023-03-10T08:41:24.252Z,3.80
2023-03-10T08:43:51.794Z,3.90
2023-03-10T08:46:20.725Z,4.00
2023-03-10T08:48:47.686Z,4.00
2023-03-10T08:51:16.134Z,4.10
2023-03-10T08:53:44.669Z,4.10
2023-03-10T08:56:11.384Z,4.30
2023-03-10T08:58:38.235Z,4.40
2023-03-10T09:01:05.309Z,4.50
2023-03-10T09:03:34.763Z,4.70
2023-03-10T09:06:01.552Z,5.00
2023-03-10T09:08:28.150Z,5.10
2023-03-10T09:10:55.130Z,5.20
2023-03-10T09:13:22.001Z,5.20
2023-03-10T09:15:50.464Z,5.30
2023-03-10T09:18:17.557Z,5.40
2023-03-10T09:20:44.702Z,5.50
2023-03-10T09:23:13.579Z,5.50
2023-03-10T09:25:40.466Z,5.70
2023-03-10T09:28:11.006Z,5.80
2023-03-10T09:30:40.823Z,6.00
2023-03-10T09:33:13.373Z,6.20
2023-03-10T09:35:41.911Z,6.50
2023-03-10T09:38:12.957Z,6.70
2023-03-10T09:40:44.572Z,6.90
2023-03-10T09:43:21.813Z,7.00
2023-03-10T09:46:05.193Z,7.10
2023-03-10T09:48:50.437Z,7.30
2023-03-10T09:51:22.825Z,7.40
2023-03-10T09:54:12.339Z,7.50
2023-03-10T09:56:39.071Z,7.60
2023-03-10T09:59:14.693Z,7.80
2023-03-10T10:01:44.954Z,7.90
2023-03-10T10:04:26.987Z,8.10
2023-03-10T10:06:56.244Z,8.10
2023-03-10T10:09:53.225Z,8.00
2023-03-10T10:12:23.839Z,8.00
2023-03-10T10:15:00.015Z,8.10
2023-03-10T10:17:53.771Z,8.00
2023-03-10T10:20:28.747Z,8.00
2023-03-10T10:22:55.447Z,8.10
2023-03-10T10:25:27.198Z,8.30
2023-03-10T10:27:55.867Z,8.40
2023-03-10T10:30:36.488Z,8.60
2023-03-10T10:33:09.339Z,8.70
2023-03-10T10:35:39.234Z,8.70
2023-03-10T10:38:11.899Z,8.80
2023-03-10T10:40:59.186Z,8.90
2023-03-10T10:43:25.916Z,9.00
2023-03-10T10:45:55.535Z,9.10
2023-03-10T10:48:50.906Z,9.30
2023-03-10T10:51:29.715Z,9.40
2023-03-10T10:54:20.233Z,9.50
2023-03-10T10:56:55.424Z,9.40
2023-03-10T10:59:32.006Z,9.30
2023-03-10T11:02:01.272Z,9.20
2023-03-10T11:04:40.876Z,9.20
2023-03-10T11:07:20.023Z,9.10
2023-03-10T11:09:47.961Z,9.10
2023-03-10T11:12:31.234Z,9.10
2023-03-10T11:15:08.831Z,9.10
2023-03-10T11:17:46.755Z,9.10
2023-03-10T11:20:24.404Z,9.10
2023-03-10T11:23:09.219Z,9.00
2023-03-10T11:25:46.222Z,9.00
2023-03-10T11:28:49.335Z,9.00
2023-03-10T11:31:54.699Z,8.90
2023-03-10T11:34:30.655Z,8.90
2023-03-10T11:37:31.477Z,8.90
2023-03-10T11:40:21.505Z,8.80
2023-03-10T11:43:01.289Z,8.80
2023-03-10T11:45:52.976Z,8.70
2023-03-10T11:48:48.792Z,8.60
2023-03-10T11:51:29.956Z,8.50
2023-03-10T11:54:05.089Z,8.40
2023-03-10T11:56:31.956Z,8.30
2023-03-10T11:59:27.894Z,8.30
2023-03-10T12:02:07.410Z,8.40
2023-03-10T12:04:56.519Z,8.30
2023-03-10T12:07:43.180Z,8.40
2023-03-10T12:10:12.781Z,8.50
2023-03-10T12:12:41.829Z,8.70
2023-03-10T12:15:22.619Z,8.80
2023-03-10T12:17:50.464Z,8.80
2023-03-10T12:20:17.409Z,8.80
2023-03-10T12:22:52.034Z,8.70
2023-03-10T12:25:27.940Z,8.70
2023-03-10T12:28:28.416Z,8.60
2023-03-10T12:30:59.473Z,8.50
2023-03-10T12:33:37.571Z,8.50
2023-03-10T12:36:16.088Z,8.50
2023-03-10T12:38:53.912Z,8.50
2023-03-10T12:41:26.582Z,8.50
2023-03-10T12:43:57.609Z,8.60
2023-03-10T12:46:30.408Z,8.70
2023-03-10T12:49:23.565Z,8.70
2023-03-10T12:51:58.524Z,8.80
2023-03-10T12:54:51.343Z,9.10
2023-03-10T12:57:30.809Z,9.30
2023-03-10T13:00:06.807Z,9.40
2023-03-10T13:02:47.637Z,9.50
2023-03-10T13:05:33.073Z,9.60
2023-03-10T13:08:12.266Z,9.50
2023-03-10T13:10:39.666Z,9.50
2023-03-10T13:13:08.953Z,9.50
2023-03-10T13:15:36.432Z,9.30
2023-03-10T13:18:11.230Z,9.40
2023-03-10T13:20:38.132Z,9.30
2023-03-10T13:23:04.983Z,9.30
2023-03-10T13:25:36.605Z,9.30
2023-03-10T13:28:11.189Z,9.50
2023-03-10T13:30:37.977Z,9.90
2023-03-10T13:33:05.046Z,10.10
2023-03-10T13:35:39.304Z,10.10
2023-03-10T13:38:26.379Z,10.10
2023-03-10T13:41:02.165Z,10.30
2023-03-10T13:43:34.950Z,10.30
2023-03-10T13:46:03.144Z,10.20
2023-03-10T13:48:31.976Z,10.00
2023-03-10T13:51:16.189Z,9.90
2023-03-10T13:53:43.231Z,9.90
2023-03-10T13:56:27.269Z,9.80
2023-03-10T13:58:58.107Z,9.70
2023-03-10T14:01:31.892Z,9.50
2023-03-10T14:04:08.657Z,9.40
2023-03-10T14:06:36.620Z,9.40
2023-03-10T14:09:20.539Z,9.20
2023-03-10T14:11:51.004Z,9.20
2023-03-10T14:14:32.176Z,9.20
2023-03-10T14:17:01.917Z,9.00
2023-03-10T14:19:45.237Z,9.00
2023-03-10T14:22:22.562Z,8.80
2023-03-10T14:24:49.385Z,8.70
2023-03-10T14:27:16.290Z,8.60
2023-03-10T14:29:50.101Z,8.60
2023-03-10T14:32:18.028Z,8.50
2023-03-10T14:34:45.049Z,8.40
2023-03-10T14:37:11.684Z,8.40
2023-03-10T14:39:38.331Z,8.30
2023-03-10T14:42:05.330Z,8.30
2023-03-10T14:44:32.564Z,8.30
2023-03-10T14:46:59.663Z,8.30
2023-03-10T14:49:27.674Z,8.30
2023-03-10T14:51:54.400Z,8.20
2023-03-10T14:54:23.746Z,8.10
2023-03-10T14:56:58.869Z,8.10
2023-03-10T14:59:30.335Z,8.00
2023-03-10T15:01:59.367Z,8.00
2023-03-10T15:04:26.193Z,8.00
2023-03-10T15:06:53.078Z,8.00
2023-03-10T15:09:19.878Z,7.90
2023-03-10T15:11:46.613Z,7.90
2023-03-10T15:14:18.892Z,7.90
2023-03-10T15:16:45.692Z,7.80
2023-03-10T15:19:24.464Z,7.80
2023-03-10T15:21:51.515Z,7.70
2023-03-10T15:24:18.622Z,7.70
2023-03-10T15:26:45.925Z,7.60
2023-03-10T15:29:19.628Z,7.50
2023-03-10T15:31:46.805Z,7.50
2023-03-10T15:34:13.705Z,7.40
2023-03-10T15:36:40.663Z,7.40
2023-03-10T15:39:07.317Z,7.40
2023-03-10T15:41:38.488Z,7.30
2023-03-10T15:44:07.334Z,7.30
2023-03-10T15:46:34.075Z,7.30
2023-03-10T15:49:03.091Z,7.20
2023-03-10T15:51:29.787Z,7.10
2023-03-10T15:53:56.403Z,7.00
2023-03-10T15:56:23.119Z,6.90
2023-03-10T15:58:50.032Z,6.90
2023-03-10T16:01:19.829Z,6.90
2023-03-10T16:03:48.352Z,6.70
2023-03-10T16:06:15.894Z,6.50
2023-03-10T16:08:42.684Z,6.50
2023-03-10T16:11:17.638Z,6.50
2023-03-10T16:13:46.598Z,6.40
2023-03-10T16:16:13.637Z,6.30
2023-03-10T16:18:40.277Z,6.20
2023-03-10T16:21:07.033Z,6.20
2023-03-10T16:23:33.764Z,6.20
2023-03-10T16:26:23.507Z,6.20
2023-03-10T16:28:55.481Z,6.10
2023-03-10T16:31:24.535Z,6.00
2023-03-10T16:33:51.742Z,5.90
2023-03-10T16:36:21.251Z,5.90
2023-03-10T16:38:48.323Z,5.80
2023-03-10T16:41:15.256Z,5.80
2023-03-10T16:43:42.866Z,5.70
2023-03-10T16:46:12.892Z,5.70
2023-03-10T16:48:43.295Z,5.60
2023-03-10T16:51:23.021Z,5.60
2023-03-10T16:53:49.935Z,5.60
2023-03-10T16:56:16.676Z,5.50
2023-03-10T16:58:43.357Z,5.40
2023-03-10T17:01:10.280Z,5.40
2023-03-10T17:03:39.527Z,5.30
2023-03-10T17:06:12.159Z,5.20
2023-03-10T17:08:40.081Z,5.10
2023-03-10T17:11:07.960Z,5.00
2023-03-10T17:13:34.898Z,4.80
2023-03-10T17:16:01.558Z,4.70
2023-03-10T17:18:28.181Z,4.70
2023-03-10T17:20:55.027Z,4.60
2023-03-10T17:23:23.658Z,4.60
2023-03-10T17:25:50.465Z,4.50
2023-03-10T17:28:17.194Z,4.40
2023-03-10T17:30:44.013Z,4.40
2023-03-10T17:33:10.672Z,4.40
2023-03-10T17:35:38.179Z,4.40
2023-03-10T17:38:04.797Z,4.50
2023-03-10T17:40:31.495Z,4.50
2023-03-10T17:43:08.394Z,4.50
2023-03-10T17:45:39.692Z,4.50
2023-03-10T17:48:06.544Z,4.40
2023-03-10T17:50:33.621Z,4.10
2023-03-10T17:53:00.265Z,4.00
2023-03-10T17:55:26.943Z,3.90
2023-03-10T17:57:53.563Z,3.90
2023-03-10T18:00:20.623Z,3.80
2023-03-10T18:02:47.660Z,3.80
2023-03-10T18:05:14.382Z,3.90
2023-03-10T18:07:40.981Z,3.90
2023-03-10T18:10:08.631Z,4.00
2023-03-10T18:12:35.303Z,4.00
2023-03-10T18:15:01.926Z,4.00
2023-03-10T18:17:29.230Z,4.00
2023-03-10T18:19:55.980Z,4.00
2023-03-10T18:22:22.949Z,3.80
2023-03-10T18:24:49.710Z,3.60
2023-03-10T18:27:16.446Z,3.50
2023-03-10T18:29:43.111Z,3.40
2023-03-10T18:32:09.739Z,3.40
2023-03-10T18:34:36.378Z,3.30
2023-03-10T18:37:03.090Z,3.40
2023-03-10T18:39:29.805Z,3.40
2023-03-10T18:41:57.555Z,3.40
2023-03-10T18:44:24.181Z,3.40
2023-03-10T18:46:50.988Z,3.30
2023-03-10T18:49:17.622Z,3.20
2023-03-10T18:51:44.315Z,3.20
2023-03-10T18:54:10.949Z,3.20
2023-03-10T18:56:37.749Z,3.20
2023-03-10T18:59:04.535Z,3.20
2023-03-10T19:01:31.189Z,3.20
2023-03-10T19:03:57.855Z,3.20
2023-03-10T19:06:29.983Z,3.20
2023-03-10T19:08:56.641Z,3.20
2023-03-10T19:11:24.558Z,3.30
2023-03-10T19:13:51.467Z,3.20
2023-03-10T19:16:18.245Z,3.20
2023-03-10T19:18:45.044Z,3.20
2023-03-10T19:21:13.001Z,3.10
2023-03-10T19:23:41.473Z,3.20
2023-03-10T19:26:09.114Z,3.20
2023-03-10T19:28:36.141Z,3.10
2023-03-10T19:31:11.882Z,3.20
2023-03-10T19:33:39.796Z,3.20
2023-03-10T19:36:11.699Z,3.10
2023-03-10T19:38:39.842Z,3.20
2023-03-10T19:41:10.927Z,3.30
2023-03-10T19:43:37.509Z,3.10
2023-03-10T19:46:06.514Z,3.10
2023-03-10T19:48:33.231Z,2.90
2023-03-10T19:51:00.841Z,3.00
2023-03-10T19:53:29.183Z,2.90
2023-03-10T19:55:57.741Z,3.00
2023-03-10T19:58:25.071Z,3.00
2023-03-10T20:00:57.636Z,2.90
2023-03-10T20:03:27.226Z,2.90
2023-03-10T20:05:54.902Z,3.00
2023-03-10T20:08:22.082Z,3.00
2023-03-10T20:10:48.760Z,3.00
2023-03-10T20:13:15.869Z,3.00
2023-03-10T20:15:42.510Z,2.90
2023-03-10T20:18:09.195Z,2.90
2023-03-10T20:20:35.782Z,2.90
2023-03-10T20:23:02.694Z,2.90
2023-03-10T20:25:29.416Z,2.90
2023-03-10T20:27:56.162Z,2.90
2023-03-10T20:30:27.740Z,3.00
2023-03-10T20:32:55.746Z,2.90
2023-03-10T20:35:23.065Z,2.90
2023-03-10T20:37:49.986Z,2.80
2023-03-10T20:40:22.952Z,2.90
2023-03-10T20:42:51.201Z,2.90
2023-03-10T20:45:18.422Z,2.90
2023-03-10T20:47:45.301Z,2.80
2023-03-10T20:50:12.767Z,2.80
2023-03-10T20:52:44.428Z,2.90
2023-03-10T20:55:26.290Z,2.90
2023-03-10T20:57:55.210Z,2.80
2023-03-10T21:00:25.044Z,2.80
2023-03-10T21:02:53.366Z,2.80
2023-03-10T21:05:21.000Z,2.80
2023-03-10T21:07:47.795Z,2.70
2023-03-10T21:10:15.653Z,2.70
2023-03-10T21:12:45.622Z,2.70
2023-03-10T21:15:15.820Z,2.70
2023-03-10T21:17:42.505Z,2.70
2023-03-10T21:20:10.638Z,2.60
2023-03-10T21:22:39.152Z,2.60
2023-03-10T21:25:08.040Z,2.70
2023-03-10T21:27:35.632Z,2.60
2023-03-10T21:30:05.370Z,2.60
2023-03-10T21:32:33.021Z,2.60
2023-03-10T21:34:59.780Z,2.50
2023-03-10T21:37:26.434Z,2.50
2023-03-10T21:39:53.892Z,2.60
2023-03-10T21:42:20.596Z,2.60
2023-03-10T21:44:48.537Z,2.50
2023-03-10T21:47:15.207Z,2.60
2023-03-10T21:49:41.875Z,2.60
2023-03-10T21:52:11.199Z,2.60
2023-03-10T21:54:37.865Z,2.60
2023-03-10T21:57:04.488Z,2.70
2023-03-10T21:59:31.205Z,2.70
2023-03-10T22:01:57.868Z,2.70
2023-03-10T22:04:24.699Z,2.70
2023-03-10T22:06:51.401Z,2.60
2023-03-10T22:09:18.078Z,2.60
2023-03-10T22:11:44.697Z,2.60
2023-03-10T22:14:11.442Z,2.60
2023-03-10T22:16:38.153Z,2.50
2023-03-10T22:19:04.785Z,2.50
2023-03-10T22:21:31.462Z,2.50
2023-03-10T22:23:59.878Z,2.50
2023-03-10T22:26:26.775Z,2.60
2023-03-10T22:28:53.398Z,2.60
2023-03-10T22:31:22.130Z,2.60
2023-03-10T22:33:48.966Z,2.50
2023-03-10T22:36:15.751Z,2.50
2023-03-10T22:38:42.545Z,2.50
2023-03-10T22:41:13.035Z,2.50
2023-03-10T22:43:40.089Z,2.60
2023-03-10T22:46:12.574Z,2.60
2023-03-10T22:48:39.895Z,2.60
2023-03-10T22:51:08.475Z,2.50
2023-03-10T22:53:37.862Z,2.50
2023-03-10T22:56:05.542Z,2.50
2023-03-10T22:58:32.339Z,2.40
2023-03-10T23:00:58.993Z,2.40
2023-03-10T23:03:26.012Z,2.50
2023-03-10T23:05:52.698Z,2.40
2023-03-10T23:08:19.620Z,2.40
2023-03-10T23:10:46.339Z,2.50
2023-03-10T23:13:15.388Z,2.50
2023-03-10T23:15:43.138Z,2.50
2023-03-10T23:18:10.256Z,2.50
2023-03-10T23:20:48.355Z,2.60
2023-03-10T23:23:16.395Z,2.60
2023-03-10T23:25:47.146Z,2.50
2023-03-10T23:28:15.206Z,2.50
2023-03-10T23:30:44.043Z,2.50
2023-03-10T23:33:19.832Z,2.50
2023-03-10T23:35:50.230Z,2.50
2023-03-10T23:38:16.922Z,2.40
2023-03-10T23:40:43.547Z,2.40
2023-03-10T23:43:11.779Z,2.50
2023-03-10T23:45:40.122Z,2.40
2023-03-10T23:48:12.019Z,2.40
2023-03-10T23:50:41.866Z,2.30
2023-03-10T23:53:10.261Z,2.30
2023-03-10T23:55:39.808Z,2.30
2023-03-10T23:58:07.305Z,2.30
